Wittmann, Arizona
Current Conditions -  °F | °C
As of 6:58 PM on Saturday 20 Dec 2014 (Local Time) from KLUF Reporting Station
Clear Clear  
Wind Chill: 54°   Ceiling: Unl
Heat Index: 54°   Visibility: 10mi
Dew Point: 43°   Wind: 0mph
Humidity: 67%   Direction: NA
Pressure: 30.1"   Gusts: NA
Location:  33.78°N, 112.53°W
Report Text: KLUF 210158Z AUTO 00000KT 10SM CLR 12/06 A3010 RMK AO2 SLP194 T01210061 $
Loading
Personal Weather Stations






























Interactive Weather Map New forecast layout! Learn more

10-Day Weather Forecast

Advertisements
Track Severe Weather on mobile